Terminal Aerodrome Forecast
Issued by NWS

Home | Current Version | Previous Version | Text Only | Print | Product List | Glossary On
Versions: 1 2 3 4 5 6 7 8 9 10 11 12 13 14
000
FTUS43 KICT 311338 AAA
TAFHUT
TAF AMD
KHUT 311338Z 3114/0112 12005KT 5SM BR SCT003
     FM311500 17012KT P6SM SKC
     FM311700 18012G20KT P6SM SKC
     FM010100 16007KT P6SM SKC=

USA.gov is the U.S. government's official web portal to all federal, state and local government web resources and services.